createdAt,value
2018-02-08T00:00:08.130Z,133.80
2018-02-08T00:02:34.533Z,127.35
2018-02-08T00:05:00.921Z,131.45
2018-02-08T00:07:27.314Z,131.32
2018-02-08T00:09:54.429Z,133.30
2018-02-08T00:12:20.918Z,131.70
2018-02-08T00:14:47.315Z,125.40
2018-02-08T00:17:13.706Z,133.37
2018-02-08T00:19:40.110Z,131.18
2018-02-08T00:22:07.270Z,125.60
2018-02-08T00:24:33.689Z,124.93
2018-02-08T00:27:00.807Z,124.82
2018-02-08T00:29:27.210Z,128.15
2018-02-08T00:31:53.585Z,125.18
2018-02-08T00:34:19.961Z,129.77
2018-02-08T00:36:46.356Z,136.93
2018-02-08T00:39:12.733Z,125.63
2018-02-08T00:41:39.137Z,132.40
2018-02-08T00:44:06.242Z,129.60
2018-02-08T00:46:32.637Z,127.53
2018-02-08T00:48:59.030Z,135.93
2018-02-08T00:51:25.483Z,127.00
2018-02-08T00:53:52.597Z,137.73
2018-02-08T00:56:19.037Z,122.35
2018-02-08T00:58:45.422Z,125.27
2018-02-08T01:01:12.559Z,114.32
2018-02-08T01:03:39.689Z,130.90
2018-02-08T01:06:06.107Z,124.15
2018-02-08T01:08:32.478Z,125.22
2018-02-08T01:10:59.621Z,124.50
2018-02-08T01:13:26.012Z,125.37
2018-02-08T01:15:52.466Z,133.05
2018-02-08T01:18:18.833Z,123.60
2018-02-08T01:20:45.225Z,119.82
2018-02-08T01:23:11.607Z,126.30
2018-02-08T01:25:38.735Z,128.05
2018-02-08T01:28:05.104Z,124.53
2018-02-08T01:30:31.522Z,126.53
2018-02-08T01:32:58.653Z,120.57
2018-02-08T01:35:25.065Z,123.90
2018-02-08T01:37:51.438Z,127.80
2018-02-08T01:40:18.576Z,127.53
2018-02-08T01:42:45.709Z,122.43
2018-02-08T01:45:12.096Z,118.82
2018-02-08T01:47:38.472Z,124.50
2018-02-08T01:50:04.857Z,125.43
2018-02-08T01:52:31.225Z,118.22
2018-02-08T01:54:57.630Z,121.25
2018-02-08T01:57:24.006Z,121.93
2018-02-08T01:59:50.485Z,126.82
2018-02-08T02:02:17.599Z,115.12
2018-02-08T02:04:44.086Z,119.75
2018-02-08T02:07:10.501Z,120.90
2018-02-08T02:09:37.621Z,119.90
2018-02-08T02:12:04.021Z,119.78
2018-02-08T02:14:30.444Z,122.07
2018-02-08T02:16:56.891Z,115.13
2018-02-08T02:19:23.310Z,120.07
2018-02-08T02:21:49.736Z,118.10
2018-02-08T02:24:16.165Z,119.17
2018-02-08T02:26:43.336Z,131.12
2018-02-08T02:29:09.742Z,126.57
2018-02-08T02:31:36.885Z,120.32
2018-02-08T02:34:03.289Z,128.18
2018-02-08T02:36:29.738Z,116.93
2018-02-08T02:38:56.159Z,124.45
2018-02-08T02:41:22.610Z,122.68
2018-02-08T02:43:49.000Z,117.10
2018-02-08T02:46:15.386Z,117.35
2018-02-08T02:48:41.776Z,115.72
2018-02-08T02:51:08.150Z,116.45
2018-02-08T02:53:34.546Z,120.95
2018-02-08T02:56:00.930Z,109.75
2018-02-08T02:58:28.065Z,115.75
2018-02-08T03:00:55.198Z,111.50
2018-02-08T03:03:21.611Z,111.05
2018-02-08T03:05:48.007Z,119.45
2018-02-08T03:08:15.178Z,113.85
2018-02-08T03:10:41.573Z,116.12
2018-02-08T03:13:07.964Z,109.80
2018-02-08T03:15:34.378Z,112.45
2018-02-08T03:18:00.770Z,106.82
2018-02-08T03:20:27.165Z,116.90
2018-02-08T03:22:53.578Z,111.20
2018-02-08T03:25:19.950Z,114.45
2018-02-08T03:27:46.359Z,115.18
2018-02-08T03:30:12.777Z,115.33
2018-02-08T03:32:39.178Z,104.55
2018-02-08T03:35:05.574Z,103.38
2018-02-08T03:37:31.985Z,108.07
2018-02-08T03:39:58.354Z,104.78
2018-02-08T03:42:24.741Z,110.97
2018-02-08T03:44:51.135Z,107.43
2018-02-08T03:47:17.513Z,105.03
2018-02-08T03:49:43.898Z,113.45
2018-02-08T03:52:10.305Z,108.87
2018-02-08T03:54:36.719Z,108.80
2018-02-08T03:57:03.120Z,111.20
2018-02-08T03:59:29.525Z,110.65
2018-02-08T04:01:55.931Z,112.68
2018-02-08T04:04:22.322Z,106.93
2018-02-08T04:06:49.475Z,108.68
2018-02-08T04:09:16.589Z,111.22
2018-02-08T04:11:42.976Z,108.93
2018-02-08T04:14:10.106Z,115.97
2018-02-08T04:16:37.349Z,106.68
2018-02-08T04:19:03.727Z,107.57
2018-02-08T04:21:30.119Z,109.35
2018-02-08T04:23:56.557Z,107.40
2018-02-08T04:26:22.940Z,108.93
2018-02-08T04:28:49.496Z,109.20
2018-02-08T04:31:15.883Z,106.87
2018-02-08T04:33:43.036Z,111.22
2018-02-08T04:36:10.190Z,108.28
2018-02-08T04:38:49.734Z,106.00
2018-02-08T04:41:29.293Z,112.70
2018-02-08T04:47:05.734Z,105.20
2018-02-08T04:49:32.140Z,101.90
2018-02-08T04:51:58.535Z,108.75
2018-02-08T04:54:24.951Z,105.25
2018-02-08T04:56:52.088Z,109.35
2018-02-08T04:59:19.203Z,107.90
2018-02-08T05:01:45.641Z,102.97
2018-02-08T05:04:12.022Z,106.82
2018-02-08T05:06:39.165Z,103.22
2018-02-08T05:09:05.627Z,101.90
2018-02-08T05:11:32.772Z,112.35
2018-02-08T05:13:59.985Z,106.12
2018-02-08T05:16:26.377Z,105.40
2018-02-08T05:18:52.773Z,111.40
2018-02-08T05:21:19.158Z,104.57
2018-02-08T05:23:45.549Z,100.70
2018-02-08T05:26:12.677Z,109.25
2018-02-08T05:28:39.094Z,108.47
2018-02-08T05:31:05.495Z,106.28
2018-02-08T05:33:31.863Z,102.78
2018-02-08T05:35:58.268Z,103.22
2018-02-08T05:38:24.650Z,106.35
2018-02-08T05:40:51.098Z,108.40
2018-02-08T05:43:17.462Z,108.22
2018-02-08T05:45:43.877Z,104.80
2018-02-08T05:48:11.005Z,105.43
2018-02-08T05:50:37.426Z,113.45
2018-02-08T05:53:03.802Z,111.12
2018-02-08T05:55:30.202Z,113.50
2018-02-08T05:57:56.611Z,104.95
2018-02-08T06:00:22.997Z,108.05
2018-02-08T06:02:50.139Z,104.80
2018-02-08T06:05:17.285Z,104.28
2018-02-08T06:07:43.688Z,97.60
2018-02-08T06:10:10.054Z,102.97
2018-02-08T06:12:36.453Z,101.85
2018-02-08T06:15:02.849Z,104.03
2018-02-08T06:17:29.274Z,97.00
2018-02-08T06:19:56.394Z,107.12
2018-02-08T06:22:22.810Z,110.12
2018-02-08T06:24:49.190Z,101.85
2018-02-08T06:27:16.337Z,109.07
2018-02-08T06:29:43.479Z,100.15
2018-02-08T06:32:10.610Z,100.12
2018-02-08T06:34:37.021Z,105.47
2018-02-08T06:37:03.405Z,100.47
2018-02-08T06:39:30.548Z,109.05
2018-02-08T06:41:57.665Z,105.85
2018-02-08T06:44:24.063Z,104.15
2018-02-08T06:46:50.437Z,105.22
2018-02-08T06:49:16.839Z,102.35
2018-02-08T06:51:43.221Z,100.28
2018-02-08T06:54:09.626Z,103.80
2018-02-08T06:56:36.098Z,105.40
2018-02-08T06:59:02.509Z,106.97
2018-02-08T07:01:28.878Z,101.93
2018-02-08T07:03:56.014Z,107.95
2018-02-08T07:06:23.157Z,101.18
2018-02-08T07:08:49.544Z,105.78
2018-02-08T07:11:15.958Z,102.53
2018-02-08T07:13:43.085Z,96.80
2018-02-08T07:16:09.523Z,100.00
2018-02-08T07:18:36.680Z,102.60
2018-02-08T07:21:03.845Z,102.05
2018-02-08T07:23:30.977Z,107.12
2018-02-08T07:25:57.358Z,100.62
2018-02-08T07:28:23.788Z,101.03
2018-02-08T07:30:50.178Z,95.30
2018-02-08T07:33:16.584Z,92.97
2018-02-08T07:35:42.970Z,101.00
2018-02-08T07:38:09.374Z,100.85
2018-02-08T07:40:36.497Z,92.90
2018-02-08T07:43:02.898Z,94.00
2018-02-08T07:45:29.296Z,97.12
2018-02-08T07:47:55.691Z,99.28
2018-02-08T07:50:22.114Z,94.45
2018-02-08T07:52:48.492Z,99.57
2018-02-08T07:55:14.904Z,90.20
2018-02-08T07:57:41.296Z,96.32
2018-02-08T08:00:07.698Z,88.32
2018-02-08T08:02:34.083Z,92.95
2018-02-08T08:05:00.481Z,93.37
2018-02-08T08:07:27.652Z,94.80
2018-02-08T08:09:54.038Z,94.60
2018-02-08T08:12:20.458Z,90.62
2018-02-08T08:14:46.872Z,91.63
2018-02-08T08:17:13.294Z,93.97
2018-02-08T08:19:39.714Z,87.55
2018-02-08T08:22:06.143Z,93.47
2018-02-08T08:24:33.317Z,89.62
2018-02-08T08:26:59.685Z,91.25
2018-02-08T08:29:26.076Z,84.97
2018-02-08T08:31:52.523Z,94.40
2018-02-08T08:34:18.944Z,90.65
2018-02-08T08:36:45.377Z,91.45
2018-02-08T08:39:11.822Z,95.53
2018-02-08T08:41:38.260Z,86.43
2018-02-08T08:44:04.633Z,91.43
2018-02-08T08:46:31.035Z,83.47
2018-02-08T08:48:57.466Z,85.25
2018-02-08T08:51:23.881Z,85.40
2018-02-08T08:53:50.390Z,87.57
2018-02-08T08:56:16.766Z,87.60
2018-02-08T08:58:43.186Z,88.82
2018-02-08T09:01:09.605Z,84.95
2018-02-08T09:03:36.762Z,86.20
2018-02-08T09:06:03.921Z,85.72
2018-02-08T09:08:30.323Z,82.37
2018-02-08T09:10:56.740Z,82.95
2018-02-08T09:13:23.174Z,83.60
2018-02-08T09:15:49.572Z,83.90
2018-02-08T09:18:15.981Z,87.70
2018-02-08T09:20:43.122Z,88.60
2018-02-08T09:23:10.255Z,82.95
2018-02-08T09:25:36.688Z,84.30
2018-02-08T09:28:03.102Z,82.20
2018-02-08T09:30:29.497Z,79.93
2018-02-08T09:32:55.893Z,84.18
2018-02-08T09:35:22.306Z,89.28
2018-02-08T09:37:48.704Z,79.65
2018-02-08T09:40:15.081Z,79.00
2018-02-08T09:42:41.480Z,81.20
2018-02-08T09:45:07.864Z,79.65
2018-02-08T09:47:34.285Z,76.45
2018-02-08T09:50:00.684Z,76.25
2018-02-08T09:52:27.065Z,76.95
2018-02-08T09:54:53.475Z,75.40
2018-02-08T09:57:19.894Z,78.57
2018-02-08T09:59:46.284Z,77.85
2018-02-08T10:02:13.428Z,78.53
2018-02-08T10:04:39.871Z,74.50
2018-02-08T10:07:07.034Z,76.37
2018-02-08T10:09:34.196Z,72.40
2018-02-08T10:12:00.593Z,76.12
2018-02-08T10:14:26.991Z,69.93
2018-02-08T10:16:53.423Z,74.82
2018-02-08T10:19:19.813Z,69.62
2018-02-08T10:21:46.966Z,68.90
2018-02-08T10:24:14.103Z,66.07
2018-02-08T10:26:40.513Z,68.00
2018-02-08T10:29:06.924Z,77.43
2018-02-08T10:31:33.301Z,65.60
2018-02-08T10:33:59.691Z,69.28
2018-02-08T10:36:26.106Z,67.55
2018-02-08T10:38:52.483Z,72.62
2018-02-08T10:41:18.893Z,67.35
2018-02-08T10:43:45.341Z,68.85
2018-02-08T10:46:11.750Z,69.72
2018-02-08T10:48:38.146Z,65.90
2018-02-08T10:51:04.579Z,68.00
2018-02-08T10:53:31.776Z,75.87
2018-02-08T10:55:58.170Z,68.30
2018-02-08T10:58:25.331Z,68.57
2018-02-08T11:00:52.436Z,68.85
2018-02-08T11:03:18.830Z,76.07
2018-02-08T11:05:45.243Z,83.10
2018-02-08T11:08:11.626Z,83.68
2018-02-08T11:10:38.022Z,79.70
